Dikson, Russia
Current Conditions -  °F | °C
As of 11:00 PM on Thursday 27 Nov 2014 (Local Time) from USRR Reporting Station
Clear Clear  
Wind Chill: -44°   Ceiling: Unl
Heat Index: -22°   Visibility: 4mi
Dew Point: -29°   Wind: 11mph
Humidity: 69%   Direction: 320°NW
Pressure: 30.3"   Gusts: NA
Location:  73.51°N, 80.55°E
Report Text: USRR 271600Z 32005MPS 7000 SKC M30/M34 Q1026 NOSIG RMK QFE76425////60
Loading
Personal Weather Stations






























Interactive Weather Map New forecast layout! Learn more

10-Day Weather Forecast

Advertisements
Track Severe Weather on mobile